createdAt,value
2022-12-11T00:01:26.878Z,64.92
2022-12-11T00:03:53.416Z,64.71
2022-12-11T00:06:22.109Z,64.68
2022-12-11T00:08:53.226Z,64.62
2022-12-11T00:11:20.563Z,64.73
2022-12-11T00:13:46.904Z,65.01
2022-12-11T00:16:14.879Z,64.79
2022-12-11T00:18:41.764Z,65.04
2022-12-11T00:21:11.751Z,65.22
2022-12-11T00:23:38.624Z,65.09
2022-12-11T00:26:07.070Z,65.19
2022-12-11T00:28:33.691Z,65.02
2022-12-11T00:31:04.625Z,64.99
2022-12-11T00:33:31.006Z,65.44
2022-12-11T00:35:57.373Z,65.34
2022-12-11T00:38:24.040Z,65.30
2022-12-11T00:40:50.666Z,64.96
2022-12-11T00:43:17.149Z,64.94
2022-12-11T00:45:45.503Z,64.93
2022-12-11T00:48:12.678Z,65.52
2022-12-11T00:50:39.654Z,65.50
2022-12-11T00:53:06.695Z,65.35
2022-12-11T00:55:37.583Z,65.46
2022-12-11T00:58:04.098Z,65.28
2022-12-11T01:00:30.605Z,65.63
2022-12-11T01:02:57.022Z,65.39
2022-12-11T01:05:23.417Z,65.29
2022-12-11T01:07:49.813Z,65.35
2022-12-11T01:10:25.657Z,65.24
2022-12-11T01:12:59.836Z,65.26
2022-12-11T01:15:32.175Z,65.42
2022-12-11T01:17:58.890Z,65.25
2022-12-11T01:20:27.558Z,65.07
2022-12-11T01:22:55.604Z,64.75
2022-12-11T01:25:22.032Z,64.67
2022-12-11T01:27:53.290Z,64.41
2022-12-11T01:30:20.604Z,64.58
2022-12-11T01:32:47.298Z,64.55
2022-12-11T01:35:14.324Z,64.78
2022-12-11T01:37:41.106Z,64.65
2022-12-11T01:40:09.063Z,64.87
2022-12-11T01:42:35.462Z,65.16
2022-12-11T01:45:20.836Z,64.89
2022-12-11T01:48:11.388Z,64.63
2022-12-11T01:50:42.190Z,64.72
2022-12-11T01:53:11.985Z,64.43
2022-12-11T01:55:39.338Z,64.54
2022-12-11T01:58:06.336Z,64.55
2022-12-11T02:00:32.711Z,64.78
2022-12-11T02:02:59.057Z,64.71
2022-12-11T02:05:25.455Z,64.39
2022-12-11T02:07:57.769Z,64.82
2022-12-11T02:10:24.174Z,64.95
2022-12-11T02:12:56.036Z,65.16
2022-12-11T02:15:33.042Z,65.18
2022-12-11T02:18:20.016Z,65.09
2022-12-11T02:20:55.436Z,65.08
2022-12-11T02:23:58.291Z,64.88
2022-12-11T02:26:48.927Z,64.75
2022-12-11T02:29:22.588Z,64.97
2022-12-11T02:32:03.311Z,65.22
2022-12-11T02:34:45.079Z,65.23
2022-12-11T02:37:16.228Z,65.05
2022-12-11T02:39:43.923Z,65.37
2022-12-11T02:42:11.127Z,65.29
2022-12-11T02:44:38.845Z,65.24
2022-12-11T02:47:08.023Z,65.29
2022-12-11T02:49:34.977Z,65.39
2022-12-11T02:52:03.561Z,65.68
2022-12-11T02:54:32.731Z,65.47
2022-12-11T02:57:06.809Z,65.47
2022-12-11T02:59:36.612Z,65.22
2022-12-11T03:02:03.669Z,65.30
2022-12-11T03:04:30.683Z,65.42
2022-12-11T03:07:01.185Z,65.46
2022-12-11T03:09:28.002Z,65.66
2022-12-11T03:11:54.545Z,65.88
2022-12-11T03:14:20.873Z,65.56
2022-12-11T03:16:56.419Z,65.89
2022-12-11T03:19:41.874Z,65.41
2022-12-11T03:22:12.208Z,65.38
2022-12-11T03:25:02.140Z,65.61
2022-12-11T03:27:39.591Z,65.83
2022-12-11T03:30:17.778Z,65.89
2022-12-11T03:32:50.923Z,65.64
2022-12-11T03:35:34.973Z,65.82
2022-12-11T03:38:06.459Z,66.03
2022-12-11T03:40:35.082Z,66.05
2022-12-11T03:43:02.514Z,66.06
2022-12-11T03:45:29.632Z,66.01
2022-12-11T03:47:57.596Z,66.15
2022-12-11T03:50:25.980Z,66.46
2022-12-11T03:52:53.367Z,66.16
2022-12-11T03:55:21.075Z,65.88
2022-12-11T03:57:47.884Z,65.51
2022-12-11T04:00:17.422Z,65.18
2022-12-11T04:02:43.961Z,65.13
2022-12-11T04:05:11.376Z,65.40
2022-12-11T04:07:37.974Z,65.34
2022-12-11T04:10:05.894Z,65.69
2022-12-11T04:12:32.280Z,65.56
2022-12-11T04:15:01.617Z,65.65
2022-12-11T04:17:52.895Z,65.52
2022-12-11T04:20:38.316Z,65.09
2022-12-11T04:23:25.706Z,65.41
2022-12-11T04:25:52.045Z,65.44
2022-12-11T04:28:18.329Z,65.26
2022-12-11T04:30:48.899Z,65.11
2022-12-11T04:33:15.299Z,65.13
2022-12-11T04:35:41.622Z,65.43
2022-12-11T04:38:07.944Z,65.36
2022-12-11T04:40:34.283Z,65.66
2022-12-11T04:43:00.607Z,65.51
2022-12-11T04:45:26.943Z,65.45
2022-12-11T04:47:53.309Z,65.38
2022-12-11T04:50:19.708Z,65.15
2022-12-11T04:52:46.114Z,65.15
2022-12-11T04:55:12.986Z,65.29
2022-12-11T04:57:40.178Z,65.28
2022-12-11T05:00:10.195Z,65.48
2022-12-11T05:02:38.079Z,65.84
2022-12-11T05:05:05.843Z,65.56
2022-12-11T05:07:32.326Z,65.79
2022-12-11T05:09:58.671Z,65.82
2022-12-11T05:12:25.139Z,65.95
2022-12-11T05:14:54.957Z,65.96
2022-12-11T05:17:21.891Z,65.83
2022-12-11T05:19:49.544Z,65.59
2022-12-11T05:22:17.066Z,65.60
2022-12-11T05:24:44.312Z,65.66
2022-12-11T05:27:10.957Z,65.42
2022-12-11T05:29:37.332Z,65.21
2022-12-11T05:32:04.396Z,65.35
2022-12-11T05:34:30.876Z,65.41
2022-12-11T05:36:57.209Z,65.27
2022-12-11T05:39:23.622Z,65.32
2022-12-11T05:41:49.955Z,65.34
2022-12-11T05:44:16.255Z,65.34
2022-12-11T05:46:42.726Z,65.33
2022-12-11T05:49:09.672Z,65.33
2022-12-11T05:51:36.015Z,65.41
2022-12-11T05:54:02.681Z,65.08
2022-12-11T05:56:31.393Z,65.38
2022-12-11T05:58:59.569Z,65.19
2022-12-11T06:01:35.528Z,65.21
2022-12-11T06:04:02.312Z,65.62
2022-12-11T06:06:28.703Z,65.21
2022-12-11T06:08:57.858Z,65.16
2022-12-11T06:11:25.162Z,65.43
2022-12-11T06:13:52.137Z,65.58
2022-12-11T06:16:19.462Z,65.88
2022-12-11T06:18:46.140Z,65.94
2022-12-11T06:21:25.782Z,65.98
2022-12-11T06:23:53.748Z,66.15
2022-12-11T06:26:21.088Z,65.99
2022-12-11T06:28:48.033Z,65.87
2022-12-11T06:31:15.704Z,65.66
2022-12-11T06:33:42.873Z,65.96
2022-12-11T06:36:20.702Z,65.57
2022-12-11T06:38:47.626Z,65.96
2022-12-11T06:41:14.649Z,66.16
2022-12-11T06:43:42.385Z,66.06
2022-12-11T06:46:15.095Z,65.89
2022-12-11T06:48:42.601Z,65.97
2022-12-11T06:51:11.810Z,65.85
2022-12-11T06:53:38.912Z,65.79
2022-12-11T06:56:07.668Z,65.81
2022-12-11T06:58:35.541Z,65.65
2022-12-11T07:01:03.773Z,65.67
2022-12-11T07:03:30.409Z,65.77
2022-12-11T07:06:01.597Z,65.21
2022-12-11T07:08:28.783Z,65.29
2022-12-11T07:10:55.170Z,65.39
2022-12-11T07:13:21.832Z,65.61
2022-12-11T07:15:48.223Z,65.72
2022-12-11T07:18:14.547Z,65.50
2022-12-11T07:20:40.899Z,65.58
2022-12-11T07:23:07.453Z,65.90
2022-12-11T07:25:33.745Z,65.87
2022-12-11T07:28:00.037Z,65.78
2022-12-11T07:30:26.400Z,66.03
2022-12-11T07:32:52.771Z,66.11
2022-12-11T07:35:19.170Z,65.68
2022-12-11T07:37:45.511Z,65.64
2022-12-11T07:40:13.014Z,65.64
2022-12-11T07:42:45.834Z,65.56
2022-12-11T07:45:12.954Z,65.71
2022-12-11T07:47:39.533Z,65.48
2022-12-11T07:50:06.032Z,65.61
2022-12-11T07:52:33.278Z,65.22
2022-12-11T07:54:59.803Z,65.13
2022-12-11T07:57:27.070Z,65.46
2022-12-11T07:59:53.433Z,65.36
2022-12-11T08:02:19.812Z,65.49
2022-12-11T08:04:46.272Z,65.20
2022-12-11T08:07:12.709Z,64.82
2022-12-11T08:09:39.242Z,64.63
2022-12-11T08:12:05.644Z,64.51
2022-12-11T08:14:32.106Z,64.74
2022-12-11T08:16:59.534Z,65.01
2022-12-11T08:19:27.230Z,64.77
2022-12-11T08:21:53.657Z,65.05
2022-12-11T08:24:20.256Z,65.10
2022-12-11T08:26:47.703Z,64.88
2022-12-11T08:29:14.336Z,64.92
2022-12-11T08:31:41.525Z,64.60
2022-12-11T08:34:08.063Z,63.77
2022-12-11T08:36:34.436Z,63.93
2022-12-11T08:39:00.736Z,64.16
2022-12-11T08:41:28.916Z,63.80
2022-12-11T08:43:56.876Z,64.17
2022-12-11T08:46:25.218Z,63.71
2022-12-11T08:48:52.544Z,63.68
2022-12-11T08:51:20.456Z,63.36
2022-12-11T08:53:46.824Z,64.00
2022-12-11T08:56:15.996Z,64.70
2022-12-11T08:58:43.339Z,63.81
2022-12-11T09:01:23.622Z,63.63
2022-12-11T09:03:51.110Z,63.09
2022-12-11T09:06:20.250Z,62.84
2022-12-11T09:08:52.177Z,63.11
2022-12-11T09:11:22.350Z,63.15
2022-12-11T09:13:48.833Z,62.95
2022-12-11T09:16:17.199Z,63.28
2022-12-11T09:18:47.684Z,63.42
2022-12-11T09:21:16.552Z,63.16
2022-12-11T09:23:43.797Z,63.33
2022-12-11T09:26:12.721Z,63.30
2022-12-11T09:28:45.705Z,63.23
2022-12-11T09:31:15.544Z,62.92
2022-12-11T09:33:42.192Z,62.66
2022-12-11T09:36:09.378Z,62.99
2022-12-11T09:38:35.938Z,62.96
2022-12-11T09:41:20.889Z,62.55
2022-12-11T09:44:11.990Z,62.20
2022-12-11T09:46:40.294Z,62.39
2022-12-11T09:49:17.595Z,62.66
2022-12-11T09:51:51.693Z,62.70
2022-12-11T09:54:18.053Z,62.39
2022-12-11T09:56:59.635Z,62.13
2022-12-11T10:00:17.632Z,62.23
2022-12-11T10:02:55.690Z,61.74
2022-12-11T10:05:30.554Z,61.48
2022-12-11T10:08:08.652Z,61.31
2022-12-11T10:10:42.375Z,61.68
2022-12-11T10:13:36.432Z,61.58
2022-12-11T10:16:12.374Z,61.76
2022-12-11T10:18:39.542Z,61.96
2022-12-11T10:21:06.468Z,62.05
2022-12-11T10:23:42.646Z,62.04
2022-12-11T10:26:16.959Z,62.03
2022-12-11T10:28:43.691Z,61.78
2022-12-11T10:31:17.849Z,61.14
2022-12-11T10:33:59.135Z,61.18
2022-12-11T10:36:40.170Z,61.07
2022-12-11T10:39:15.139Z,61.23
2022-12-11T10:41:47.676Z,61.41
2022-12-11T10:44:24.694Z,61.47
2022-12-11T10:47:10.114Z,61.59
2022-12-11T10:49:38.413Z,61.61
2022-12-11T10:52:17.847Z,61.51
2022-12-11T10:54:48.129Z,61.19
2022-12-11T10:57:15.097Z,61.28
2022-12-11T10:59:49.381Z,61.19
2022-12-11T11:02:24.419Z,61.20
2022-12-11T11:04:51.509Z,60.77
2022-12-11T11:07:17.859Z,61.02
2022-12-11T11:09:44.608Z,61.01
2022-12-11T11:12:24.083Z,61.33
2022-12-11T11:15:01.576Z,61.25
2022-12-11T11:17:33.631Z,61.22
2022-12-11T11:20:06.728Z,61.18
2022-12-11T11:22:38.680Z,61.41
2022-12-11T11:25:05.809Z,61.04
2022-12-11T11:28:03.385Z,60.92
2022-12-11T11:30:40.080Z,60.57
2022-12-11T11:33:15.548Z,60.84
2022-12-11T11:35:52.439Z,60.65
2022-12-11T11:38:21.718Z,60.76
2022-12-11T11:41:03.902Z,60.86
2022-12-11T11:43:59.039Z,61.24
2022-12-11T11:46:35.758Z,61.06
2022-12-11T11:49:24.121Z,61.42
2022-12-11T11:52:03.701Z,61.60
2022-12-11T11:54:36.963Z,61.15
2022-12-11T11:57:13.353Z,61.43
2022-12-11T11:59:44.266Z,61.68
2022-12-11T12:02:15.996Z,61.51
2022-12-11T12:04:43.862Z,61.13
2022-12-11T12:07:24.106Z,60.97
2022-12-11T12:10:13.719Z,61.11
2022-12-11T12:12:52.058Z,61.24
2022-12-11T12:15:48.037Z,61.30
2022-12-11T12:18:42.573Z,60.88
2022-12-11T12:21:18.387Z,60.78
2022-12-11T12:23:53.401Z,60.28
2022-12-11T12:26:28.541Z,60.19
2022-12-11T12:29:20.895Z,60.38
2022-12-11T12:32:13.455Z,60.46
2022-12-11T12:34:45.811Z,59.50
2022-12-11T12:37:21.419Z,59.53
2022-12-11T12:40:00.370Z,59.36
2022-12-11T12:42:45.351Z,59.28
2022-12-11T12:45:14.930Z,59.35
2022-12-11T12:47:43.059Z,59.61
2022-12-11T12:50:21.370Z,59.67
2022-12-11T12:52:48.656Z,59.49
2022-12-11T12:55:22.329Z,59.21
2022-12-11T12:58:06.641Z,59.51
2022-12-11T13:00:36.040Z,60.13
2022-12-11T13:03:26.301Z,59.79
2022-12-11T13:06:02.577Z,60.08
2022-12-11T13:08:46.239Z,59.70
2022-12-11T13:11:15.739Z,59.72
2022-12-11T13:14:02.396Z,59.54
2022-12-11T13:16:39.972Z,59.45
2022-12-11T13:19:17.370Z,59.52
2022-12-11T13:21:57.383Z,59.47
2022-12-11T13:24:26.890Z,59.71
2022-12-11T13:26:53.526Z,59.78
2022-12-11T13:29:46.681Z,59.70
2022-12-11T13:32:12.944Z,59.17
2022-12-11T13:34:41.611Z,58.90
2022-12-11T13:37:35.737Z,59.37
2022-12-11T13:40:06.032Z,59.12
2022-12-11T13:42:47.620Z,59.37
2022-12-11T13:45:43.955Z,59.32
2022-12-11T13:48:47.155Z,59.10
2022-12-11T13:51:22.046Z,58.98
2022-12-11T13:53:48.909Z,58.59
2022-12-11T13:56:17.967Z,58.85
2022-12-11T13:58:44.733Z,59.21
2022-12-11T14:01:15.436Z,59.58
2022-12-11T14:03:54.776Z,59.66
2022-12-11T14:06:21.461Z,59.61
2022-12-11T14:08:50.137Z,59.96
2022-12-11T14:11:30.411Z,60.23
2022-12-11T14:13:59.482Z,60.34
2022-12-11T14:16:27.246Z,60.64
2022-12-11T14:18:57.431Z,60.82
2022-12-11T14:21:25.348Z,61.04
2022-12-11T14:23:53.935Z,61.21
2022-12-11T14:26:25.963Z,61.42
2022-12-11T14:28:52.862Z,61.02
2022-12-11T14:31:33.228Z,60.94
2022-12-11T14:34:07.601Z,60.74
2022-12-11T14:36:34.712Z,60.51
2022-12-11T14:39:06.968Z,60.61
2022-12-11T14:41:36.241Z,60.77
2022-12-11T14:44:04.651Z,60.82
2022-12-11T14:46:39.652Z,60.49
2022-12-11T14:49:17.360Z,60.26
2022-12-11T14:51:43.963Z,60.20
2022-12-11T14:54:32.597Z,60.00
2022-12-11T14:57:00.956Z,59.62
2022-12-11T14:59:32.088Z,59.67
2022-12-11T15:02:20.719Z,59.63
2022-12-11T15:05:00.795Z,59.05
2022-12-11T15:07:27.215Z,58.98
2022-12-11T15:09:53.687Z,59.33
2022-12-11T15:12:21.241Z,59.71
2022-12-11T15:14:56.808Z,59.45
2022-12-11T15:17:25.029Z,59.38
2022-12-11T15:19:54.345Z,59.09
2022-12-11T15:22:25.497Z,59.16
2022-12-11T15:24:53.388Z,59.08
2022-12-11T15:27:39.143Z,59.14
2022-12-11T15:30:18.011Z,59.36
2022-12-11T15:32:44.937Z,59.55
2022-12-11T15:35:25.876Z,59.79
2022-12-11T15:37:54.106Z,59.97
2022-12-11T15:40:21.371Z,60.30
2022-12-11T15:42:49.463Z,60.63
2022-12-11T15:45:18.489Z,60.80
2022-12-11T15:47:46.209Z,61.18
2022-12-11T15:50:21.920Z,61.22
2022-12-11T15:52:49.531Z,61.27
2022-12-11T15:55:17.075Z,61.44
2022-12-11T15:57:50.362Z,61.20
2022-12-11T16:00:18.714Z,61.27
2022-12-11T16:02:46.171Z,61.13
2022-12-11T16:05:14.010Z,61.37
2022-12-11T16:07:40.621Z,61.34
2022-12-11T16:10:07.893Z,61.16
2022-12-11T16:12:34.522Z,60.90
2022-12-11T16:15:01.112Z,60.62
2022-12-11T16:17:28.295Z,60.53
2022-12-11T16:19:55.256Z,60.73
2022-12-11T16:22:27.620Z,60.64
2022-12-11T16:24:54.384Z,60.66
2022-12-11T16:27:23.377Z,60.79
2022-12-11T16:29:50.653Z,60.95
2022-12-11T16:32:18.024Z,61.06
2022-12-11T16:34:44.375Z,61.30
2022-12-11T16:37:11.136Z,61.41
2022-12-11T16:39:38.179Z,61.64
2022-12-11T16:42:05.657Z,61.76
2022-12-11T16:44:32.228Z,62.03
2022-12-11T16:46:58.661Z,62.17
2022-12-11T16:49:25.193Z,62.27
2022-12-11T16:51:52.124Z,62.40
2022-12-11T16:54:18.776Z,62.47
2022-12-11T16:56:45.475Z,62.52
2022-12-11T16:59:12.210Z,62.77
2022-12-11T17:01:38.822Z,62.67
2022-12-11T17:04:06.020Z,62.83
2022-12-11T17:06:33.091Z,63.08
2022-12-11T17:09:00.081Z,63.04
2022-12-11T17:11:26.531Z,63.19
2022-12-11T17:13:58.161Z,63.36
2022-12-11T17:16:28.247Z,63.59
2022-12-11T17:18:56.164Z,63.54
2022-12-11T17:21:23.381Z,63.84
2022-12-11T17:23:50.180Z,63.84
2022-12-11T17:26:17.702Z,64.08
2022-12-11T17:28:44.803Z,64.39
2022-12-11T17:31:15.211Z,64.39
2022-12-11T17:33:43.596Z,64.53
2022-12-11T17:36:12.723Z,64.43
2022-12-11T17:38:39.193Z,64.62
2022-12-11T17:41:08.581Z,64.77
2022-12-11T17:43:35.346Z,64.71
2022-12-11T17:46:02.852Z,64.73
2022-12-11T17:48:29.561Z,64.73
2022-12-11T17:50:56.257Z,64.81
2022-12-11T17:53:23.431Z,64.77
2022-12-11T17:55:51.067Z,65.27
2022-12-11T17:58:21.171Z,65.16
2022-12-11T18:00:52.814Z,65.31
2022-12-11T18:03:20.158Z,65.27
2022-12-11T18:05:49.913Z,65.64
2022-12-11T18:08:18.806Z,65.44
2022-12-11T18:10:45.431Z,65.54
2022-12-11T18:13:12.291Z,65.57
2022-12-11T18:15:39.234Z,65.81
2022-12-11T18:18:06.712Z,65.81
2022-12-11T18:20:33.826Z,66.04
2022-12-11T18:23:00.599Z,66.03
2022-12-11T18:25:27.190Z,65.96
2022-12-11T18:27:57.021Z,66.10
2022-12-11T18:30:24.264Z,66.18
2022-12-11T18:32:51.694Z,66.25
2022-12-11T18:35:18.820Z,65.93
2022-12-11T18:37:45.596Z,65.98
2022-12-11T18:40:11.955Z,66.36
2022-12-11T18:42:38.293Z,66.56
2022-12-11T18:45:06.301Z,66.52
2022-12-11T18:47:32.831Z,66.77
2022-12-11T18:50:03.930Z,66.74
2022-12-11T18:52:34.058Z,66.64
2022-12-11T18:55:00.637Z,66.80
2022-12-11T18:57:27.047Z,66.74
2022-12-11T18:59:54.051Z,66.61
2022-12-11T19:02:21.921Z,66.54
2022-12-11T19:04:48.666Z,66.72
2022-12-11T19:07:15.421Z,66.89
2022-12-11T19:09:47.572Z,66.86
2022-12-11T19:12:14.645Z,66.82
2022-12-11T19:14:41.107Z,66.77
2022-12-11T19:17:07.460Z,66.93
2022-12-11T19:19:34.106Z,67.14
2022-12-11T19:22:00.461Z,67.01
2022-12-11T19:24:27.119Z,66.79
2022-12-11T19:26:53.588Z,66.86
2022-12-11T19:29:22.667Z,66.46
2022-12-11T19:31:49.336Z,66.39
2022-12-11T19:34:18.033Z,66.49
2022-12-11T19:36:44.444Z,66.30
2022-12-11T19:39:13.280Z,66.61
2022-12-11T19:41:40.821Z,67.01
2022-12-11T19:44:07.766Z,67.14
2022-12-11T19:46:34.526Z,67.50
2022-12-11T19:49:02.257Z,67.51
2022-12-11T19:51:35.739Z,67.74
2022-12-11T19:54:02.201Z,67.53
2022-12-11T19:56:29.054Z,67.67
2022-12-11T19:58:55.720Z,67.66
2022-12-11T20:01:25.819Z,67.40
2022-12-11T20:03:57.683Z,67.47
2022-12-11T20:06:26.619Z,67.62
2022-12-11T20:08:53.172Z,67.74
2022-12-11T20:11:19.642Z,67.80
2022-12-11T20:13:47.450Z,67.61
2022-12-11T20:16:15.084Z,67.87
2022-12-11T20:18:41.705Z,68.07
2022-12-11T20:21:11.101Z,67.78
2022-12-11T20:23:37.873Z,67.44
2022-12-11T20:26:12.747Z,67.20
2022-12-11T20:28:39.478Z,67.29
2022-12-11T20:31:07.721Z,67.35
2022-12-11T20:33:34.615Z,67.80
2022-12-11T20:36:05.221Z,68.09
2022-12-11T20:38:35.494Z,68.24
2022-12-11T20:41:05.640Z,68.03
2022-12-11T20:43:33.173Z,67.93
2022-12-11T20:45:59.624Z,68.04
2022-12-11T20:48:26.098Z,68.07
2022-12-11T20:50:52.474Z,67.98
2022-12-11T20:53:18.870Z,67.82
2022-12-11T20:55:45.188Z,67.72
2022-12-11T20:58:11.524Z,67.82
2022-12-11T21:00:38.930Z,67.87
2022-12-11T21:03:05.728Z,67.57
2022-12-11T21:05:32.157Z,67.91
2022-12-11T21:07:58.595Z,67.56
2022-12-11T21:10:25.235Z,67.26
2022-12-11T21:12:51.615Z,68.29
2022-12-11T21:15:18.124Z,67.67
2022-12-11T21:17:45.097Z,67.19
2022-12-11T21:20:11.542Z,67.17
2022-12-11T21:22:38.234Z,67.29
2022-12-11T21:25:05.708Z,67.30
2022-12-11T21:27:32.225Z,67.40
2022-12-11T21:29:58.679Z,67.43
2022-12-11T21:32:25.332Z,67.18
2022-12-11T21:34:54.709Z,67.10
2022-12-11T21:37:21.128Z,67.20
2022-12-11T21:39:47.472Z,67.12
2022-12-11T21:42:13.852Z,67.06
2022-12-11T21:45:31.504Z,66.73
2022-12-11T21:47:30.497Z,67.07
2022-12-11T21:49:57.333Z,67.17
2022-12-11T21:52:23.722Z,67.28
2022-12-11T21:54:50.065Z,67.11
2022-12-11T21:57:18.995Z,66.99
2022-12-11T21:59:49.159Z,67.24
2022-12-11T22:02:15.608Z,66.91
2022-12-11T22:04:42.020Z,66.52
2022-12-11T22:07:08.329Z,66.70
2022-12-11T22:09:34.799Z,66.97
2022-12-11T22:12:01.145Z,66.84
2022-12-11T22:14:30.064Z,66.64
2022-12-11T22:16:57.707Z,66.87
2022-12-11T22:19:27.845Z,66.50
2022-12-11T22:21:58.923Z,66.53
2022-12-11T22:24:25.258Z,66.61
2022-12-11T22:26:53.720Z,66.61
2022-12-11T22:29:20.188Z,66.70
2022-12-11T22:31:46.858Z,66.57
2022-12-11T22:34:13.496Z,66.53
2022-12-11T22:36:40.009Z,66.63
2022-12-11T22:39:06.471Z,66.66
2022-12-11T22:41:33.181Z,66.33
2022-12-11T22:43:59.637Z,66.25
2022-12-11T22:46:28.261Z,66.17
2022-12-11T22:48:54.651Z,66.36
2022-12-11T22:51:22.256Z,66.59
2022-12-11T22:53:48.738Z,66.62
2022-12-11T22:56:15.160Z,66.58
2022-12-11T22:58:41.858Z,66.89
2022-12-11T23:01:10.695Z,66.80
2022-12-11T23:03:37.276Z,66.91
2022-12-11T23:06:08.306Z,66.81
2022-12-11T23:08:34.994Z,67.05
2022-12-11T23:11:02.569Z,66.90
2022-12-11T23:13:29.660Z,66.89
2022-12-11T23:15:56.129Z,66.64
2022-12-11T23:18:22.485Z,66.26
2022-12-11T23:20:49.208Z,66.19
2022-12-11T23:23:15.546Z,66.27
2022-12-11T23:25:41.882Z,66.46
2022-12-11T23:28:08.218Z,66.16
2022-12-11T23:30:34.650Z,66.35
2022-12-11T23:33:01.137Z,66.49
2022-12-11T23:35:27.528Z,66.69
2022-12-11T23:37:53.852Z,66.64
2022-12-11T23:40:20.203Z,66.53
2022-12-11T23:42:46.558Z,66.32
2022-12-11T23:45:13.054Z,66.48
2022-12-11T23:47:39.651Z,66.35
2022-12-11T23:50:06.512Z,66.22
2022-12-11T23:52:33.032Z,66.23
2022-12-11T23:54:59.363Z,65.76
2022-12-11T23:57:25.872Z,65.89
2022-12-11T23:59:52.158Z,66.20
